sensor_id;sensor_type;location;lat;lon;timestamp;temperature;humidity
21238;DHT22;10777;50.828;3.264;2022-07-03T00:01:56;19.90;99.90
21238;DHT22;10777;50.828;3.264;2022-07-03T00:04:21;20.10;99.90
21238;DHT22;10777;50.828;3.264;2022-07-03T00:06:47;20.10;99.90
21238;DHT22;10777;50.828;3.264;2022-07-03T00:09:14;20.00;99.90
21238;DHT22;10777;50.828;3.264;2022-07-03T00:11:40;20.00;99.90
21238;DHT22;10777;50.828;3.264;2022-07-03T00:14:05;19.80;99.90
21238;DHT22;10777;50.828;3.264;2022-07-03T00:16:31;19.70;99.90
21238;DHT22;10777;50.828;3.264;2022-07-03T00:18:57;19.80;99.90
21238;DHT22;10777;50.828;3.264;2022-07-03T00:21:31;19.80;99.90
21238;DHT22;10777;50.828;3.264;2022-07-03T00:24:04;19.70;99.90
21238;DHT22;10777;50.828;3.264;2022-07-03T00:26:34;19.70;99.90
21238;DHT22;10777;50.828;3.264;2022-07-03T00:29:03;19.60;99.90
21238;DHT22;10777;50.828;3.264;2022-07-03T00:31:31;19.60;99.90
21238;DHT22;10777;50.828;3.264;2022-07-03T00:34:00;19.60;99.90
21238;DHT22;10777;50.828;3.264;2022-07-03T00:36:33;19.70;99.90
21238;DHT22;10777;50.828;3.264;2022-07-03T00:39:00;19.60;99.90
21238;DHT22;10777;50.828;3.264;2022-07-03T00:41:29;19.70;99.90
21238;DHT22;10777;50.828;3.264;2022-07-03T00:43:56;19.60;99.90
21238;DHT22;10777;50.828;3.264;2022-07-03T00:46:23;19.60;99.90
21238;DHT22;10777;50.828;3.264;2022-07-03T00:48:51;19.50;99.90
21238;DHT22;10777;50.828;3.264;2022-07-03T00:51:25;19.40;99.90
21238;DHT22;10777;50.828;3.264;2022-07-03T00:53:53;19.40;99.90
21238;DHT22;10777;50.828;3.264;2022-07-03T00:56:23;19.60;99.90
21238;DHT22;10777;50.828;3.264;2022-07-03T00:58:53;19.70;99.90
21238;DHT22;10777;50.828;3.264;2022-07-03T01:01:20;19.60;99.90
21238;DHT22;10777;50.828;3.264;2022-07-03T01:03:48;19.70;99.90
21238;DHT22;10777;50.828;3.264;2022-07-03T01:06:18;19.60;99.90
21238;DHT22;10777;50.828;3.264;2022-07-03T01:08:48;19.50;99.90
21238;DHT22;10777;50.828;3.264;2022-07-03T01:11:32;19.40;99.90
21238;DHT22;10777;50.828;3.264;2022-07-03T01:14:29;19.50;99.90
21238;DHT22;10777;50.828;3.264;2022-07-03T01:17:02;19.20;99.90
21238;DHT22;10777;50.828;3.264;2022-07-03T01:19:42;19.20;99.90
21238;DHT22;10777;50.828;3.264;2022-07-03T01:22:30;19.40;99.90
21238;DHT22;10777;50.828;3.264;2022-07-03T01:25:17;19.30;99.90
21238;DHT22;10777;50.828;3.264;2022-07-03T01:28:07;19.20;99.90
21238;DHT22;10777;50.828;3.264;2022-07-03T01:30:37;19.20;99.90
21238;DHT22;10777;50.828;3.264;2022-07-03T01:33:08;19.10;99.90
21238;DHT22;10777;50.828;3.264;2022-07-03T01:35:41;19.40;99.90
21238;DHT22;10777;50.828;3.264;2022-07-03T01:38:12;19.10;99.90
21238;DHT22;10777;50.828;3.264;2022-07-03T01:40:40;19.00;99.90
21238;DHT22;10777;50.828;3.264;2022-07-03T01:43:08;18.90;99.90
21238;DHT22;10777;50.828;3.264;2022-07-03T01:45:40;18.90;99.90
21238;DHT22;10777;50.828;3.264;2022-07-03T01:48:07;18.90;99.90
21238;DHT22;10777;50.828;3.264;2022-07-03T01:50:34;18.80;99.90
21238;DHT22;10777;50.828;3.264;2022-07-03T01:53:03;18.90;99.90
21238;DHT22;10777;50.828;3.264;2022-07-03T01:55:31;19.00;99.90
21238;DHT22;10777;50.828;3.264;2022-07-03T01:57:58;19.20;99.90
21238;DHT22;10777;50.828;3.264;2022-07-03T02:00:25;19.20;99.90
21238;DHT22;10777;50.828;3.264;2022-07-03T02:03:03;19.20;99.90
21238;DHT22;10777;50.828;3.264;2022-07-03T02:05:45;19.20;99.90
21238;DHT22;10777;50.828;3.264;2022-07-03T02:08:24;19.00;99.90
21238;DHT22;10777;50.828;3.264;2022-07-03T02:11:08;19.00;99.90
21238;DHT22;10777;50.828;3.264;2022-07-03T02:13:44;19.00;99.90
21238;DHT22;10777;50.828;3.264;2022-07-03T02:16:16;19.00;99.90
21238;DHT22;10777;50.828;3.264;2022-07-03T02:18:43;18.90;99.90
21238;DHT22;10777;50.828;3.264;2022-07-03T02:21:15;19.00;99.90
21238;DHT22;10777;50.828;3.264;2022-07-03T02:23:55;19.10;99.90
21238;DHT22;10777;50.828;3.264;2022-07-03T02:26:33;19.10;99.90
21238;DHT22;10777;50.828;3.264;2022-07-03T02:29:20;19.30;99.90
21238;DHT22;10777;50.828;3.264;2022-07-03T02:31:53;19.20;99.90
21238;DHT22;10777;50.828;3.264;2022-07-03T02:34:23;18.90;99.90
21238;DHT22;10777;50.828;3.264;2022-07-03T02:36:52;18.80;99.90
21238;DHT22;10777;50.828;3.264;2022-07-03T02:39:29;18.80;99.90
21238;DHT22;10777;50.828;3.264;2022-07-03T02:42:02;18.80;99.90
21238;DHT22;10777;50.828;3.264;2022-07-03T02:44:42;18.80;99.90
21238;DHT22;10777;50.828;3.264;2022-07-03T02:47:30;18.80;99.90
21238;DHT22;10777;50.828;3.264;2022-07-03T02:50:08;18.60;99.90
21238;DHT22;10777;50.828;3.264;2022-07-03T02:52:47;18.60;99.90
21238;DHT22;10777;50.828;3.264;2022-07-03T02:55:39;18.60;99.90
21238;DHT22;10777;50.828;3.264;2022-07-03T02:58:31;18.50;99.90
21238;DHT22;10777;50.828;3.264;2022-07-03T03:01:06;18.30;99.90
21238;DHT22;10777;50.828;3.264;2022-07-03T03:03:33;18.30;99.90
21238;DHT22;10777;50.828;3.264;2022-07-03T03:06:03;18.20;99.90
21238;DHT22;10777;50.828;3.264;2022-07-03T03:08:49;18.20;99.90
21238;DHT22;10777;50.828;3.264;2022-07-03T03:11:43;18.20;99.90
21238;DHT22;10777;50.828;3.264;2022-07-03T03:14:11;18.30;99.90
21238;DHT22;10777;50.828;3.264;2022-07-03T03:16:47;18.20;99.90
21238;DHT22;10777;50.828;3.264;2022-07-03T03:19:14;18.20;99.90
21238;DHT22;10777;50.828;3.264;2022-07-03T03:21:56;18.30;99.90
21238;DHT22;10777;50.828;3.264;2022-07-03T03:24:23;18.30;99.90
21238;DHT22;10777;50.828;3.264;2022-07-03T03:26:50;18.20;99.90
21238;DHT22;10777;50.828;3.264;2022-07-03T03:29:17;18.10;99.90
21238;DHT22;10777;50.828;3.264;2022-07-03T03:31:44;18.10;99.90
21238;DHT22;10777;50.828;3.264;2022-07-03T03:34:10;18.10;99.90
21238;DHT22;10777;50.828;3.264;2022-07-03T03:36:36;18.20;99.90
21238;DHT22;10777;50.828;3.264;2022-07-03T03:39:02;18.20;99.90
21238;DHT22;10777;50.828;3.264;2022-07-03T03:41:28;18.20;99.90
21238;DHT22;10777;50.828;3.264;2022-07-03T03:43:54;18.30;99.90
21238;DHT22;10777;50.828;3.264;2022-07-03T03:46:20;18.20;99.90
21238;DHT22;10777;50.828;3.264;2022-07-03T03:48:47;18.10;99.90
21238;DHT22;10777;50.828;3.264;2022-07-03T03:51:13;18.10;99.90
21238;DHT22;10777;50.828;3.264;2022-07-03T03:53:39;18.10;99.90
21238;DHT22;10777;50.828;3.264;2022-07-03T03:56:08;18.00;99.90
21238;DHT22;10777;50.828;3.264;2022-07-03T03:58:37;18.00;99.90
21238;DHT22;10777;50.828;3.264;2022-07-03T04:01:05;18.00;99.90
21238;DHT22;10777;50.828;3.264;2022-07-03T04:03:32;17.80;99.90
21238;DHT22;10777;50.828;3.264;2022-07-03T04:05:59;17.70;99.90
21238;DHT22;10777;50.828;3.264;2022-07-03T04:08:26;17.80;99.90
21238;DHT22;10777;50.828;3.264;2022-07-03T04:10:52;17.90;99.90
21238;DHT22;10777;50.828;3.264;2022-07-03T04:13:18;17.90;99.90
21238;DHT22;10777;50.828;3.264;2022-07-03T04:15:45;17.90;99.90
21238;DHT22;10777;50.828;3.264;2022-07-03T04:18:11;17.80;99.90
21238;DHT22;10777;50.828;3.264;2022-07-03T04:20:37;17.80;99.90
21238;DHT22;10777;50.828;3.264;2022-07-03T04:23:03;17.90;99.90
21238;DHT22;10777;50.828;3.264;2022-07-03T04:25:29;18.00;99.90
21238;DHT22;10777;50.828;3.264;2022-07-03T04:27:55;17.90;99.90
21238;DHT22;10777;50.828;3.264;2022-07-03T04:30:22;18.10;99.90
21238;DHT22;10777;50.828;3.264;2022-07-03T04:32:48;18.00;99.90
21238;DHT22;10777;50.828;3.264;2022-07-03T04:35:15;18.00;99.90
21238;DHT22;10777;50.828;3.264;2022-07-03T04:37:42;18.10;99.90
21238;DHT22;10777;50.828;3.264;2022-07-03T04:40:09;18.10;99.90
21238;DHT22;10777;50.828;3.264;2022-07-03T04:42:36;18.10;99.90
21238;DHT22;10777;50.828;3.264;2022-07-03T04:45:03;18.10;99.90
21238;DHT22;10777;50.828;3.264;2022-07-03T04:47:29;18.20;99.90
21238;DHT22;10777;50.828;3.264;2022-07-03T04:49:55;18.20;99.90
21238;DHT22;10777;50.828;3.264;2022-07-03T04:52:21;18.10;99.90
21238;DHT22;10777;50.828;3.264;2022-07-03T04:54:47;18.00;99.90
21238;DHT22;10777;50.828;3.264;2022-07-03T04:57:13;18.10;99.90
21238;DHT22;10777;50.828;3.264;2022-07-03T04:59:39;18.30;99.90
21238;DHT22;10777;50.828;3.264;2022-07-03T05:02:04;18.60;99.90
21238;DHT22;10777;50.828;3.264;2022-07-03T05:04:30;18.60;99.90
21238;DHT22;10777;50.828;3.264;2022-07-03T05:06:57;18.50;99.90
21238;DHT22;10777;50.828;3.264;2022-07-03T05:09:23;18.50;99.90
21238;DHT22;10777;50.828;3.264;2022-07-03T05:11:50;18.40;99.90
21238;DHT22;10777;50.828;3.264;2022-07-03T05:14:17;18.50;99.90
21238;DHT22;10777;50.828;3.264;2022-07-03T05:16:43;18.50;99.90
21238;DHT22;10777;50.828;3.264;2022-07-03T05:19:10;18.70;99.90
21238;DHT22;10777;50.828;3.264;2022-07-03T05:21:37;18.70;99.90
21238;DHT22;10777;50.828;3.264;2022-07-03T05:24:03;18.90;99.90
21238;DHT22;10777;50.828;3.264;2022-07-03T05:26:29;18.90;99.90
21238;DHT22;10777;50.828;3.264;2022-07-03T05:28:55;18.70;99.90
21238;DHT22;10777;50.828;3.264;2022-07-03T05:31:21;18.70;99.90
21238;DHT22;10777;50.828;3.264;2022-07-03T05:33:47;18.70;99.90
21238;DHT22;10777;50.828;3.264;2022-07-03T05:36:13;18.40;99.90
21238;DHT22;10777;50.828;3.264;2022-07-03T05:38:38;18.50;99.90
21238;DHT22;10777;50.828;3.264;2022-07-03T05:41:24;18.40;99.90
21238;DHT22;10777;50.828;3.264;2022-07-03T05:43:50;18.60;99.90
21238;DHT22;10777;50.828;3.264;2022-07-03T05:46:15;18.80;99.90
21238;DHT22;10777;50.828;3.264;2022-07-03T05:48:41;18.90;99.90
21238;DHT22;10777;50.828;3.264;2022-07-03T05:51:07;18.90;99.90
21238;DHT22;10777;50.828;3.264;2022-07-03T05:53:33;18.90;99.90
21238;DHT22;10777;50.828;3.264;2022-07-03T05:55:58;18.90;99.90
21238;DHT22;10777;50.828;3.264;2022-07-03T05:58:24;19.10;99.90
21238;DHT22;10777;50.828;3.264;2022-07-03T06:00:50;19.10;99.90
21238;DHT22;10777;50.828;3.264;2022-07-03T06:03:15;19.30;99.90
21238;DHT22;10777;50.828;3.264;2022-07-03T06:05:41;19.30;99.90
21238;DHT22;10777;50.828;3.264;2022-07-03T06:08:07;19.40;99.90
21238;DHT22;10777;50.828;3.264;2022-07-03T06:10:33;19.50;99.90
21238;DHT22;10777;50.828;3.264;2022-07-03T06:12:59;19.60;99.90
21238;DHT22;10777;50.828;3.264;2022-07-03T06:15:26;19.80;99.90
21238;DHT22;10777;50.828;3.264;2022-07-03T06:17:51;19.30;99.90
21238;DHT22;10777;50.828;3.264;2022-07-03T06:20:17;19.30;99.90
21238;DHT22;10777;50.828;3.264;2022-07-03T06:22:43;19.60;99.90
21238;DHT22;10777;50.828;3.264;2022-07-03T06:25:09;19.60;99.90
21238;DHT22;10777;50.828;3.264;2022-07-03T06:27:35;19.60;99.90
21238;DHT22;10777;50.828;3.264;2022-07-03T06:30:01;19.40;99.90
21238;DHT22;10777;50.828;3.264;2022-07-03T06:32:27;19.50;99.90
21238;DHT22;10777;50.828;3.264;2022-07-03T06:34:53;19.70;99.90
21238;DHT22;10777;50.828;3.264;2022-07-03T06:37:18;19.80;99.90
21238;DHT22;10777;50.828;3.264;2022-07-03T06:39:44;20.00;99.90
21238;DHT22;10777;50.828;3.264;2022-07-03T06:42:10;19.70;99.90
21238;DHT22;10777;50.828;3.264;2022-07-03T06:44:36;19.60;99.90
21238;DHT22;10777;50.828;3.264;2022-07-03T06:47:01;19.70;99.90
21238;DHT22;10777;50.828;3.264;2022-07-03T06:49:29;19.70;99.90
21238;DHT22;10777;50.828;3.264;2022-07-03T06:51:55;19.60;99.90
21238;DHT22;10777;50.828;3.264;2022-07-03T06:54:20;19.40;99.90
21238;DHT22;10777;50.828;3.264;2022-07-03T06:56:46;19.40;99.90
21238;DHT22;10777;50.828;3.264;2022-07-03T06:59:12;19.40;99.90
21238;DHT22;10777;50.828;3.264;2022-07-03T07:01:38;19.30;99.90
21238;DHT22;10777;50.828;3.264;2022-07-03T07:04:03;19.50;99.90
21238;DHT22;10777;50.828;3.264;2022-07-03T07:06:29;19.10;99.90
21238;DHT22;10777;50.828;3.264;2022-07-03T07:08:55;19.60;99.90
21238;DHT22;10777;50.828;3.264;2022-07-03T07:11:21;19.50;99.90
21238;DHT22;10777;50.828;3.264;2022-07-03T07:13:46;19.40;99.90
21238;DHT22;10777;50.828;3.264;2022-07-03T07:16:12;20.30;99.90
21238;DHT22;10777;50.828;3.264;2022-07-03T07:18:42;19.60;99.90
21238;DHT22;10777;50.828;3.264;2022-07-03T07:21:09;19.60;99.90
21238;DHT22;10777;50.828;3.264;2022-07-03T07:23:35;19.90;99.90
21238;DHT22;10777;50.828;3.264;2022-07-03T07:26:01;20.30;99.90
21238;DHT22;10777;50.828;3.264;2022-07-03T07:28:27;20.60;99.90
21238;DHT22;10777;50.828;3.264;2022-07-03T07:30:53;20.40;99.90
21238;DHT22;10777;50.828;3.264;2022-07-03T07:33:21;20.50;99.90
21238;DHT22;10777;50.828;3.264;2022-07-03T07:35:47;20.40;99.90
21238;DHT22;10777;50.828;3.264;2022-07-03T07:38:13;20.40;99.90
21238;DHT22;10777;50.828;3.264;2022-07-03T07:40:38;20.70;99.90
21238;DHT22;10777;50.828;3.264;2022-07-03T07:43:04;20.80;99.90
21238;DHT22;10777;50.828;3.264;2022-07-03T07:45:30;20.80;99.90
21238;DHT22;10777;50.828;3.264;2022-07-03T07:47:56;20.60;99.90
21238;DHT22;10777;50.828;3.264;2022-07-03T07:50:22;20.80;99.90
21238;DHT22;10777;50.828;3.264;2022-07-03T07:52:47;20.70;99.90
21238;DHT22;10777;50.828;3.264;2022-07-03T07:55:13;20.90;99.90
21238;DHT22;10777;50.828;3.264;2022-07-03T07:57:39;20.80;99.90
21238;DHT22;10777;50.828;3.264;2022-07-03T08:00:08;20.60;99.90
21238;DHT22;10777;50.828;3.264;2022-07-03T08:02:34;20.40;99.90
21238;DHT22;10777;50.828;3.264;2022-07-03T08:05:20;20.40;99.90
21238;DHT22;10777;50.828;3.264;2022-07-03T08:08:10;20.50;99.90
21238;DHT22;10777;50.828;3.264;2022-07-03T08:10:42;20.60;99.90
21238;DHT22;10777;50.828;3.264;2022-07-03T08:13:09;20.60;99.90
21238;DHT22;10777;50.828;3.264;2022-07-03T08:15:35;20.90;99.90
21238;DHT22;10777;50.828;3.264;2022-07-03T08:18:01;20.90;99.90
21238;DHT22;10777;50.828;3.264;2022-07-03T08:20:27;21.30;99.90
21238;DHT22;10777;50.828;3.264;2022-07-03T08:22:53;21.50;99.90
21238;DHT22;10777;50.828;3.264;2022-07-03T08:25:19;21.90;99.90
21238;DHT22;10777;50.828;3.264;2022-07-03T08:27:45;22.00;99.90
21238;DHT22;10777;50.828;3.264;2022-07-03T08:30:11;21.90;99.90
21238;DHT22;10777;50.828;3.264;2022-07-03T08:32:40;21.80;99.90
21238;DHT22;10777;50.828;3.264;2022-07-03T08:35:06;21.50;99.90
21238;DHT22;10777;50.828;3.264;2022-07-03T08:37:32;21.50;99.90
21238;DHT22;10777;50.828;3.264;2022-07-03T08:39:57;21.80;99.90
21238;DHT22;10777;50.828;3.264;2022-07-03T08:42:24;22.00;99.90
21238;DHT22;10777;50.828;3.264;2022-07-03T08:44:51;22.00;99.90
21238;DHT22;10777;50.828;3.264;2022-07-03T08:47:19;21.90;99.90
21238;DHT22;10777;50.828;3.264;2022-07-03T08:49:44;21.90;99.90
21238;DHT22;10777;50.828;3.264;2022-07-03T08:52:12;21.70;99.90
21238;DHT22;10777;50.828;3.264;2022-07-03T08:54:38;21.70;99.90
21238;DHT22;10777;50.828;3.264;2022-07-03T08:57:05;21.40;99.90
21238;DHT22;10777;50.828;3.264;2022-07-03T08:59:36;21.20;99.90
21238;DHT22;10777;50.828;3.264;2022-07-03T09:02:04;21.10;99.90
21238;DHT22;10777;50.828;3.264;2022-07-03T09:04:33;21.00;99.90
21238;DHT22;10777;50.828;3.264;2022-07-03T09:07:01;21.20;99.90
21238;DHT22;10777;50.828;3.264;2022-07-03T09:09:32;21.60;99.90
21238;DHT22;10777;50.828;3.264;2022-07-03T09:11:59;21.70;99.90
21238;DHT22;10777;50.828;3.264;2022-07-03T09:14:27;21.60;99.90
21238;DHT22;10777;50.828;3.264;2022-07-03T09:16:55;22.00;99.90
21238;DHT22;10777;50.828;3.264;2022-07-03T09:19:42;22.40;99.90
21238;DHT22;10777;50.828;3.264;2022-07-03T09:22:26;22.50;99.90
21238;DHT22;10777;50.828;3.264;2022-07-03T09:25:11;22.50;99.90
21238;DHT22;10777;50.828;3.264;2022-07-03T09:27:38;22.30;99.90
21238;DHT22;10777;50.828;3.264;2022-07-03T09:30:07;22.20;99.90
21238;DHT22;10777;50.828;3.264;2022-07-03T09:32:48;22.10;99.90
21238;DHT22;10777;50.828;3.264;2022-07-03T09:35:24;21.90;99.90
21238;DHT22;10777;50.828;3.264;2022-07-03T09:37:56;21.90;99.90
21238;DHT22;10777;50.828;3.264;2022-07-03T09:40:24;22.30;99.90
21238;DHT22;10777;50.828;3.264;2022-07-03T09:43:00;22.50;99.90
21238;DHT22;10777;50.828;3.264;2022-07-03T09:45:27;22.80;99.90
21238;DHT22;10777;50.828;3.264;2022-07-03T09:47:53;22.80;99.90
21238;DHT22;10777;50.828;3.264;2022-07-03T09:50:19;23.00;99.90
21238;DHT22;10777;50.828;3.264;2022-07-03T09:52:47;22.60;99.90
21238;DHT22;10777;50.828;3.264;2022-07-03T09:55:15;22.40;99.90
21238;DHT22;10777;50.828;3.264;2022-07-03T09:57:43;22.10;99.90
21238;DHT22;10777;50.828;3.264;2022-07-03T10:00:26;21.80;99.90
21238;DHT22;10777;50.828;3.264;2022-07-03T10:03:09;21.90;99.90
21238;DHT22;10777;50.828;3.264;2022-07-03T10:05:38;22.00;99.90
21238;DHT22;10777;50.828;3.264;2022-07-03T10:08:08;21.90;99.90
21238;DHT22;10777;50.828;3.264;2022-07-03T10:10:39;22.10;99.90
21238;DHT22;10777;50.828;3.264;2022-07-03T10:13:05;22.30;99.90
21238;DHT22;10777;50.828;3.264;2022-07-03T10:15:33;22.30;99.90
21238;DHT22;10777;50.828;3.264;2022-07-03T10:18:01;22.20;99.90
21238;DHT22;10777;50.828;3.264;2022-07-03T10:20:34;22.30;99.90
21238;DHT22;10777;50.828;3.264;2022-07-03T10:22:59;22.40;99.90
21238;DHT22;10777;50.828;3.264;2022-07-03T10:25:26;22.50;99.90
21238;DHT22;10777;50.828;3.264;2022-07-03T10:27:52;22.50;99.90
21238;DHT22;10777;50.828;3.264;2022-07-03T10:30:20;22.60;99.90
21238;DHT22;10777;50.828;3.264;2022-07-03T10:32:48;22.50;99.90
21238;DHT22;10777;50.828;3.264;2022-07-03T10:35:17;22.60;99.90
21238;DHT22;10777;50.828;3.264;2022-07-03T10:40:52;22.60;99.90
21238;DHT22;10777;50.828;3.264;2022-07-03T10:43:43;22.70;99.90
21238;DHT22;10777;50.828;3.264;2022-07-03T10:46:30;22.70;99.90
21238;DHT22;10777;50.828;3.264;2022-07-03T10:49:03;22.80;99.90
21238;DHT22;10777;50.828;3.264;2022-07-03T10:54:26;23.20;99.90
21238;DHT22;10777;50.828;3.264;2022-07-03T10:57:08;23.50;99.90
21238;DHT22;10777;50.828;3.264;2022-07-03T10:59:56;23.10;99.90
21238;DHT22;10777;50.828;3.264;2022-07-03T11:02:35;23.10;99.90
21238;DHT22;10777;50.828;3.264;2022-07-03T11:05:22;23.20;99.90
21238;DHT22;10777;50.828;3.264;2022-07-03T11:08:07;23.00;99.90
21238;DHT22;10777;50.828;3.264;2022-07-03T11:10:34;23.00;99.90
21238;DHT22;10777;50.828;3.264;2022-07-03T11:13:05;23.10;99.90
21238;DHT22;10777;50.828;3.264;2022-07-03T11:18:29;23.50;99.90
21238;DHT22;10777;50.828;3.264;2022-07-03T11:24:15;23.30;99.90
21238;DHT22;10777;50.828;3.264;2022-07-03T11:26:42;23.00;99.90
21238;DHT22;10777;50.828;3.264;2022-07-03T11:29:25;23.10;99.90
21238;DHT22;10777;50.828;3.264;2022-07-03T11:31:51;23.10;99.90
21238;DHT22;10777;50.828;3.264;2022-07-03T11:34:20;22.70;99.90
21238;DHT22;10777;50.828;3.264;2022-07-03T11:36:46;22.00;99.90
21238;DHT22;10777;50.828;3.264;2022-07-03T11:39:13;22.00;99.90
21238;DHT22;10777;50.828;3.264;2022-07-03T11:41:44;22.20;99.90
21238;DHT22;10777;50.828;3.264;2022-07-03T11:44:15;22.40;99.90
21238;DHT22;10777;50.828;3.264;2022-07-03T11:46:41;22.40;99.90
21238;DHT22;10777;50.828;3.264;2022-07-03T11:49:09;22.70;99.90
21238;DHT22;10777;50.828;3.264;2022-07-03T11:51:35;22.80;99.90
21238;DHT22;10777;50.828;3.264;2022-07-03T11:54:02;22.80;99.90
21238;DHT22;10777;50.828;3.264;2022-07-03T11:56:29;22.90;99.90
21238;DHT22;10777;50.828;3.264;2022-07-03T11:58:57;23.00;99.90
21238;DHT22;10777;50.828;3.264;2022-07-03T12:01:34;22.90;99.90
21238;DHT22;10777;50.828;3.264;2022-07-03T12:04:17;22.70;99.90
21238;DHT22;10777;50.828;3.264;2022-07-03T12:06:46;22.70;99.90
21238;DHT22;10777;50.828;3.264;2022-07-03T12:09:22;22.80;99.90
21238;DHT22;10777;50.828;3.264;2022-07-03T12:12:08;23.20;99.90
21238;DHT22;10777;50.828;3.264;2022-07-03T12:14:41;23.40;99.90
21238;DHT22;10777;50.828;3.264;2022-07-03T12:17:09;23.70;99.90
21238;DHT22;10777;50.828;3.264;2022-07-03T12:19:36;23.60;99.90
21238;DHT22;10777;50.828;3.264;2022-07-03T12:22:03;23.20;99.90
21238;DHT22;10777;50.828;3.264;2022-07-03T12:24:29;24.10;99.90
21238;DHT22;10777;50.828;3.264;2022-07-03T12:26:54;24.20;99.90
21238;DHT22;10777;50.828;3.264;2022-07-03T12:29:21;24.20;99.90
21238;DHT22;10777;50.828;3.264;2022-07-03T12:31:48;24.40;99.90
21238;DHT22;10777;50.828;3.264;2022-07-03T12:34:15;24.40;99.90
21238;DHT22;10777;50.828;3.264;2022-07-03T12:36:55;24.60;99.90
21238;DHT22;10777;50.828;3.264;2022-07-03T12:39:21;24.90;99.90
21238;DHT22;10777;50.828;3.264;2022-07-03T12:41:46;25.10;99.90
21238;DHT22;10777;50.828;3.264;2022-07-03T12:44:15;24.50;99.90
21238;DHT22;10777;50.828;3.264;2022-07-03T12:46:46;24.50;99.90
21238;DHT22;10777;50.828;3.264;2022-07-03T12:49:12;24.20;99.90
21238;DHT22;10777;50.828;3.264;2022-07-03T12:51:45;24.00;99.90
21238;DHT22;10777;50.828;3.264;2022-07-03T12:54:14;23.80;99.90
21238;DHT22;10777;50.828;3.264;2022-07-03T12:56:42;23.90;99.90
21238;DHT22;10777;50.828;3.264;2022-07-03T12:59:25;24.00;99.90
21238;DHT22;10777;50.828;3.264;2022-07-03T13:02:06;24.10;99.90
21238;DHT22;10777;50.828;3.264;2022-07-03T13:04:34;24.00;99.90
21238;DHT22;10777;50.828;3.264;2022-07-03T13:07:02;23.80;99.90
21238;DHT22;10777;50.828;3.264;2022-07-03T13:09:28;23.60;99.90
21238;DHT22;10777;50.828;3.264;2022-07-03T13:11:54;23.60;99.90
21238;DHT22;10777;50.828;3.264;2022-07-03T13:14:20;23.70;99.90
21238;DHT22;10777;50.828;3.264;2022-07-03T13:16:48;23.20;99.90
21238;DHT22;10777;50.828;3.264;2022-07-03T13:19:15;23.10;99.90
21238;DHT22;10777;50.828;3.264;2022-07-03T13:21:42;23.40;99.90
21238;DHT22;10777;50.828;3.264;2022-07-03T13:24:10;23.80;99.90
21238;DHT22;10777;50.828;3.264;2022-07-03T13:26:36;24.20;99.90
21238;DHT22;10777;50.828;3.264;2022-07-03T13:29:03;24.50;99.90
21238;DHT22;10777;50.828;3.264;2022-07-03T13:31:29;24.30;99.90
21238;DHT22;10777;50.828;3.264;2022-07-03T13:33:56;24.40;99.90
21238;DHT22;10777;50.828;3.264;2022-07-03T13:36:22;23.80;99.90
21238;DHT22;10777;50.828;3.264;2022-07-03T13:38:48;23.70;99.90
21238;DHT22;10777;50.828;3.264;2022-07-03T13:41:14;23.90;99.90
21238;DHT22;10777;50.828;3.264;2022-07-03T13:43:40;24.20;99.90
21238;DHT22;10777;50.828;3.264;2022-07-03T13:46:05;24.30;99.90
21238;DHT22;10777;50.828;3.264;2022-07-03T13:48:31;24.60;99.90
21238;DHT22;10777;50.828;3.264;2022-07-03T13:50:57;24.90;99.90
21238;DHT22;10777;50.828;3.264;2022-07-03T13:53:23;25.10;99.90
21238;DHT22;10777;50.828;3.264;2022-07-03T13:55:48;25.70;99.90
21238;DHT22;10777;50.828;3.264;2022-07-03T13:58:14;26.30;99.80
21238;DHT22;10777;50.828;3.264;2022-07-03T14:00:40;26.50;98.80
21238;DHT22;10777;50.828;3.264;2022-07-03T14:03:06;26.90;98.90
21238;DHT22;10777;50.828;3.264;2022-07-03T14:05:31;26.70;97.20
21238;DHT22;10777;50.828;3.264;2022-07-03T14:07:57;26.20;97.30
21238;DHT22;10777;50.828;3.264;2022-07-03T14:10:23;26.10;97.70
21238;DHT22;10777;50.828;3.264;2022-07-03T14:12:51;26.10;96.90
21238;DHT22;10777;50.828;3.264;2022-07-03T14:15:17;26.10;97.70
21238;DHT22;10777;50.828;3.264;2022-07-03T14:17:43;26.30;97.80
21238;DHT22;10777;50.828;3.264;2022-07-03T14:20:10;27.20;97.40
21238;DHT22;10777;50.828;3.264;2022-07-03T14:22:36;28.30;95.60
21238;DHT22;10777;50.828;3.264;2022-07-03T14:25:02;28.50;94.90
21238;DHT22;10777;50.828;3.264;2022-07-03T14:27:28;28.40;94.20
21238;DHT22;10777;50.828;3.264;2022-07-03T14:30:14;27.60;94.20
21238;DHT22;10777;50.828;3.264;2022-07-03T14:33:00;26.40;95.70
21238;DHT22;10777;50.828;3.264;2022-07-03T14:35:26;25.90;97.30
21238;DHT22;10777;50.828;3.264;2022-07-03T14:37:51;26.00;97.60
21238;DHT22;10777;50.828;3.264;2022-07-03T14:40:17;25.70;98.10
21238;DHT22;10777;50.828;3.264;2022-07-03T14:42:43;25.60;98.50
21238;DHT22;10777;50.828;3.264;2022-07-03T14:45:09;25.20;99.40
21238;DHT22;10777;50.828;3.264;2022-07-03T14:47:35;25.50;98.90
21238;DHT22;10777;50.828;3.264;2022-07-03T14:50:02;27.10;97.10
21238;DHT22;10777;50.828;3.264;2022-07-03T14:52:27;26.90;96.30
21238;DHT22;10777;50.828;3.264;2022-07-03T14:54:55;26.50;96.50
21238;DHT22;10777;50.828;3.264;2022-07-03T15:00:28;25.90;96.60
21238;DHT22;10777;50.828;3.264;2022-07-03T15:03:05;25.20;97.70
21238;DHT22;10777;50.828;3.264;2022-07-03T15:05:33;24.60;98.90
21238;DHT22;10777;50.828;3.264;2022-07-03T15:11:13;25.70;98.60
21238;DHT22;10777;50.828;3.264;2022-07-03T15:14:02;25.40;99.30
21238;DHT22;10777;50.828;3.264;2022-07-03T15:16:31;25.60;99.20
21238;DHT22;10777;50.828;3.264;2022-07-03T15:19:01;25.70;98.90
21238;DHT22;10777;50.828;3.264;2022-07-03T15:21:30;26.30;98.40
21238;DHT22;10777;50.828;3.264;2022-07-03T15:24:01;25.90;98.70
21238;DHT22;10777;50.828;3.264;2022-07-03T15:26:29;25.60;98.90
21238;DHT22;10777;50.828;3.264;2022-07-03T15:28:58;25.70;98.80
21238;DHT22;10777;50.828;3.264;2022-07-03T15:31:26;25.70;98.30
21238;DHT22;10777;50.828;3.264;2022-07-03T15:33:52;25.90;98.40
21238;DHT22;10777;50.828;3.264;2022-07-03T15:36:20;26.30;97.40
21238;DHT22;10777;50.828;3.264;2022-07-03T15:38:57;27.60;97.00
21238;DHT22;10777;50.828;3.264;2022-07-03T15:41:28;28.60;95.80
21238;DHT22;10777;50.828;3.264;2022-07-03T15:44:17;29.20;94.40
21238;DHT22;10777;50.828;3.264;2022-07-03T15:47:18;29.50;93.70
21238;DHT22;10777;50.828;3.264;2022-07-03T15:49:47;28.50;93.90
21238;DHT22;10777;50.828;3.264;2022-07-03T15:52:19;27.00;95.30
21238;DHT22;10777;50.828;3.264;2022-07-03T15:55:07;25.30;99.70
21238;DHT22;10777;50.828;3.264;2022-07-03T15:57:59;24.60;99.90
21238;DHT22;10777;50.828;3.264;2022-07-03T16:00:28;24.40;99.90
21238;DHT22;10777;50.828;3.264;2022-07-03T16:03:23;24.20;99.90
21238;DHT22;10777;50.828;3.264;2022-07-03T16:05:55;23.90;99.90